sensor_id;sensor_type;location;lat;lon;timestamp;P1;durP1;ratioP1;P2;durP2;ratioP2
44766;SDS011;30487;48.716;9.272;2022-10-16T00:01:25;2.55;;;1.30;;
44766;SDS011;30487;48.716;9.272;2022-10-16T00:03:52;2.95;;;1.30;;
44766;SDS011;30487;48.716;9.272;2022-10-16T00:06:19;4.07;;;1.50;;
44766;SDS011;30487;48.716;9.272;2022-10-16T00:08:46;4.25;;;1.60;;
44766;SDS011;30487;48.716;9.272;2022-10-16T00:13:42;4.80;;;1.30;;
44766;SDS011;30487;48.716;9.272;2022-10-16T00:16:11;4.25;;;1.30;;
44766;SDS011;30487;48.716;9.272;2022-10-16T00:18:38;3.95;;;1.30;;
44766;SDS011;30487;48.716;9.272;2022-10-16T00:21:12;2.17;;;1.48;;
44766;SDS011;30487;48.716;9.272;2022-10-16T00:23:39;2.80;;;1.40;;
44766;SDS011;30487;48.716;9.272;2022-10-16T00:26:07;3.63;;;1.40;;
44766;SDS011;30487;48.716;9.272;2022-10-16T00:28:44;3.53;;;1.50;;
44766;SDS011;30487;48.716;9.272;2022-10-16T00:31:14;5.22;;;1.50;;
44766;SDS011;30487;48.716;9.272;2022-10-16T00:33:40;3.78;;;1.40;;
44766;SDS011;30487;48.716;9.272;2022-10-16T00:36:06;3.53;;;1.70;;
44766;SDS011;30487;48.716;9.272;2022-10-16T00:38:34;6.28;;;1.80;;
44766;SDS011;30487;48.716;9.272;2022-10-16T00:41:00;3.33;;;1.70;;
44766;SDS011;30487;48.716;9.272;2022-10-16T00:46:01;4.70;;;1.67;;
44766;SDS011;30487;48.716;9.272;2022-10-16T00:48:28;5.20;;;1.73;;
44766;SDS011;30487;48.716;9.272;2022-10-16T00:50:54;2.92;;;1.63;;
44766;SDS011;30487;48.716;9.272;2022-10-16T00:53:22;6.40;;;2.00;;
44766;SDS011;30487;48.716;9.272;2022-10-16T00:55:49;4.22;;;1.77;;
44766;SDS011;30487;48.716;9.272;2022-10-16T00:58:15;3.38;;;1.60;;
44766;SDS011;30487;48.716;9.272;2022-10-16T01:00:41;3.45;;;1.80;;
44766;SDS011;30487;48.716;9.272;2022-10-16T01:03:23;5.13;;;1.75;;
44766;SDS011;30487;48.716;9.272;2022-10-16T01:05:57;7.63;;;1.58;;
44766;SDS011;30487;48.716;9.272;2022-10-16T01:08:34;2.95;;;1.60;;
44766;SDS011;30487;48.716;9.272;2022-10-16T01:11:15;3.47;;;1.40;;
44766;SDS011;30487;48.716;9.272;2022-10-16T01:13:48;13.90;;;2.28;;
44766;SDS011;30487;48.716;9.272;2022-10-16T01:16:24;5.55;;;1.75;;
44766;SDS011;30487;48.716;9.272;2022-10-16T01:19:02;2.75;;;1.42;;
44766;SDS011;30487;48.716;9.272;2022-10-16T01:21:59;3.17;;;1.50;;
44766;SDS011;30487;48.716;9.272;2022-10-16T01:24:39;4.05;;;1.60;;
44766;SDS011;30487;48.716;9.272;2022-10-16T01:37:44;3.95;;;1.42;;
44766;SDS011;30487;48.716;9.272;2022-10-16T01:42:44;2.58;;;1.30;;
44766;SDS011;30487;48.716;9.272;2022-10-16T01:45:15;4.45;;;1.77;;
44766;SDS011;30487;48.716;9.272;2022-10-16T01:47:44;4.82;;;1.80;;
44766;SDS011;30487;48.716;9.272;2022-10-16T01:50:10;5.00;;;2.10;;
44766;SDS011;30487;48.716;9.272;2022-10-16T01:52:40;4.53;;;1.73;;
44766;SDS011;30487;48.716;9.272;2022-10-16T01:55:09;4.63;;;1.70;;
44766;SDS011;30487;48.716;9.272;2022-10-16T01:57:38;3.58;;;1.90;;
44766;SDS011;30487;48.716;9.272;2022-10-16T02:00:09;4.57;;;1.92;;
44766;SDS011;30487;48.716;9.272;2022-10-16T02:02:37;4.00;;;1.80;;
44766;SDS011;30487;48.716;9.272;2022-10-16T02:05:30;3.47;;;2.00;;
44766;SDS011;30487;48.716;9.272;2022-10-16T02:08:04;4.78;;;1.77;;
44766;SDS011;30487;48.716;9.272;2022-10-16T02:10:30;2.88;;;1.70;;
44766;SDS011;30487;48.716;9.272;2022-10-16T02:13:06;3.50;;;1.73;;
44766;SDS011;30487;48.716;9.272;2022-10-16T02:15:33;8.65;;;1.92;;
44766;SDS011;30487;48.716;9.272;2022-10-16T02:17:59;3.55;;;1.80;;
44766;SDS011;30487;48.716;9.272;2022-10-16T02:20:27;6.18;;;1.98;;
44766;SDS011;30487;48.716;9.272;2022-10-16T02:22:54;3.20;;;1.88;;
44766;SDS011;30487;48.716;9.272;2022-10-16T02:25:35;3.47;;;1.83;;
44766;SDS011;30487;48.716;9.272;2022-10-16T02:28:38;4.78;;;1.90;;
44766;SDS011;30487;48.716;9.272;2022-10-16T02:31:03;2.75;;;2.03;;
44766;SDS011;30487;48.716;9.272;2022-10-16T02:33:32;3.47;;;2.08;;
44766;SDS011;30487;48.716;9.272;2022-10-16T02:35:59;4.50;;;1.98;;
44766;SDS011;30487;48.716;9.272;2022-10-16T02:38:25;5.65;;;1.98;;
44766;SDS011;30487;48.716;9.272;2022-10-16T02:40:51;4.20;;;2.10;;
44766;SDS011;30487;48.716;9.272;2022-10-16T02:43:17;4.88;;;1.92;;
44766;SDS011;30487;48.716;9.272;2022-10-16T02:45:44;3.95;;;1.98;;
44766;SDS011;30487;48.716;9.272;2022-10-16T02:48:09;3.20;;;2.00;;
44766;SDS011;30487;48.716;9.272;2022-10-16T02:50:35;6.22;;;2.08;;
44766;SDS011;30487;48.716;9.272;2022-10-16T02:53:01;3.17;;;1.90;;
44766;SDS011;30487;48.716;9.272;2022-10-16T02:55:27;6.28;;;1.80;;
44766;SDS011;30487;48.716;9.272;2022-10-16T02:57:53;4.25;;;1.80;;
44766;SDS011;30487;48.716;9.272;2022-10-16T03:00:19;6.68;;;1.80;;
44766;SDS011;30487;48.716;9.272;2022-10-16T03:02:45;9.65;;;1.90;;
44766;SDS011;30487;48.716;9.272;2022-10-16T03:05:11;5.13;;;2.00;;
44766;SDS011;30487;48.716;9.272;2022-10-16T03:07:37;4.25;;;2.30;;
44766;SDS011;30487;48.716;9.272;2022-10-16T03:10:03;6.25;;;2.08;;
44766;SDS011;30487;48.716;9.272;2022-10-16T03:12:29;5.32;;;2.08;;
44766;SDS011;30487;48.716;9.272;2022-10-16T03:14:56;7.53;;;1.80;;
44766;SDS011;30487;48.716;9.272;2022-10-16T03:17:22;7.75;;;1.70;;
44766;SDS011;30487;48.716;9.272;2022-10-16T03:19:49;6.28;;;1.55;;
44766;SDS011;30487;48.716;9.272;2022-10-16T03:22:15;6.45;;;1.80;;
44766;SDS011;30487;48.716;9.272;2022-10-16T03:24:40;7.60;;;1.92;;
44766;SDS011;30487;48.716;9.272;2022-10-16T03:27:06;4.80;;;1.67;;
44766;SDS011;30487;48.716;9.272;2022-10-16T03:29:31;5.07;;;1.88;;
44766;SDS011;30487;48.716;9.272;2022-10-16T03:31:58;5.90;;;1.60;;
44766;SDS011;30487;48.716;9.272;2022-10-16T03:34:24;4.18;;;1.80;;
44766;SDS011;30487;48.716;9.272;2022-10-16T03:36:50;4.13;;;1.75;;
44766;SDS011;30487;48.716;9.272;2022-10-16T03:39:16;4.50;;;1.52;;
44766;SDS011;30487;48.716;9.272;2022-10-16T03:41:41;3.72;;;1.55;;
44766;SDS011;30487;48.716;9.272;2022-10-16T03:44:07;5.03;;;1.70;;
44766;SDS011;30487;48.716;9.272;2022-10-16T03:46:33;3.97;;;1.63;;
44766;SDS011;30487;48.716;9.272;2022-10-16T03:48:58;3.00;;;1.60;;
44766;SDS011;30487;48.716;9.272;2022-10-16T03:51:24;3.50;;;1.90;;
44766;SDS011;30487;48.716;9.272;2022-10-16T03:53:49;6.40;;;1.67;;
44766;SDS011;30487;48.716;9.272;2022-10-16T03:56:15;5.10;;;1.50;;
44766;SDS011;30487;48.716;9.272;2022-10-16T03:58:41;5.57;;;1.63;;
44766;SDS011;30487;48.716;9.272;2022-10-16T04:01:06;2.88;;;1.40;;
44766;SDS011;30487;48.716;9.272;2022-10-16T04:03:32;6.80;;;1.58;;
44766;SDS011;30487;48.716;9.272;2022-10-16T04:05:57;3.75;;;1.65;;
44766;SDS011;30487;48.716;9.272;2022-10-16T04:08:23;7.00;;;1.80;;
44766;SDS011;30487;48.716;9.272;2022-10-16T04:10:49;3.20;;;1.50;;
44766;SDS011;30487;48.716;9.272;2022-10-16T04:13:14;3.05;;;1.40;;
44766;SDS011;30487;48.716;9.272;2022-10-16T04:15:40;4.32;;;1.50;;
44766;SDS011;30487;48.716;9.272;2022-10-16T04:18:06;3.88;;;1.60;;
44766;SDS011;30487;48.716;9.272;2022-10-16T04:20:32;3.67;;;1.70;;
44766;SDS011;30487;48.716;9.272;2022-10-16T04:22:58;5.22;;;1.27;;
44766;SDS011;30487;48.716;9.272;2022-10-16T04:25:24;6.55;;;1.55;;
44766;SDS011;30487;48.716;9.272;2022-10-16T04:27:52;4.40;;;1.40;;
44766;SDS011;30487;48.716;9.272;2022-10-16T04:30:18;4.95;;;1.60;;
44766;SDS011;30487;48.716;9.272;2022-10-16T04:32:47;2.92;;;1.60;;
44766;SDS011;30487;48.716;9.272;2022-10-16T04:35:14;4.25;;;1.75;;
44766;SDS011;30487;48.716;9.272;2022-10-16T04:37:40;4.07;;;1.45;;
44766;SDS011;30487;48.716;9.272;2022-10-16T04:40:05;4.80;;;1.80;;
44766;SDS011;30487;48.716;9.272;2022-10-16T04:42:31;4.57;;;1.50;;
44766;SDS011;30487;48.716;9.272;2022-10-16T04:44:57;6.10;;;1.60;;
44766;SDS011;30487;48.716;9.272;2022-10-16T04:47:22;2.83;;;1.80;;
44766;SDS011;30487;48.716;9.272;2022-10-16T04:49:48;4.07;;;1.73;;
44766;SDS011;30487;48.716;9.272;2022-10-16T04:52:13;4.32;;;1.52;;
44766;SDS011;30487;48.716;9.272;2022-10-16T04:54:39;3.97;;;1.60;;
44766;SDS011;30487;48.716;9.272;2022-10-16T04:57:05;6.45;;;1.77;;
44766;SDS011;30487;48.716;9.272;2022-10-16T04:59:31;3.75;;;1.90;;
44766;SDS011;30487;48.716;9.272;2022-10-16T05:01:57;7.57;;;1.70;;
44766;SDS011;30487;48.716;9.272;2022-10-16T05:04:22;3.65;;;1.80;;
44766;SDS011;30487;48.716;9.272;2022-10-16T05:06:48;5.88;;;1.75;;
44766;SDS011;30487;48.716;9.272;2022-10-16T05:09:14;7.05;;;1.70;;
44766;SDS011;30487;48.716;9.272;2022-10-16T05:11:39;3.78;;;1.70;;
44766;SDS011;30487;48.716;9.272;2022-10-16T05:14:05;6.45;;;1.92;;
44766;SDS011;30487;48.716;9.272;2022-10-16T05:16:31;6.28;;;1.73;;
44766;SDS011;30487;48.716;9.272;2022-10-16T05:18:56;3.58;;;1.70;;
44766;SDS011;30487;48.716;9.272;2022-10-16T05:21:22;4.88;;;1.80;;
44766;SDS011;30487;48.716;9.272;2022-10-16T05:23:47;9.05;;;4.18;;
44766;SDS011;30487;48.716;9.272;2022-10-16T05:26:13;6.97;;;3.45;;
44766;SDS011;30487;48.716;9.272;2022-10-16T05:28:38;8.45;;;3.20;;
44766;SDS011;30487;48.716;9.272;2022-10-16T05:31:07;5.20;;;2.30;;
44766;SDS011;30487;48.716;9.272;2022-10-16T05:33:34;3.97;;;2.10;;
44766;SDS011;30487;48.716;9.272;2022-10-16T05:36:03;3.97;;;1.60;;
44766;SDS011;30487;48.716;9.272;2022-10-16T05:38:31;2.97;;;1.70;;
44766;SDS011;30487;48.716;9.272;2022-10-16T05:40:56;2.95;;;1.52;;
44766;SDS011;30487;48.716;9.272;2022-10-16T05:43:22;6.75;;;2.10;;
44766;SDS011;30487;48.716;9.272;2022-10-16T05:45:58;8.05;;;2.55;;
44766;SDS011;30487;48.716;9.272;2022-10-16T05:48:26;9.40;;;3.15;;
44766;SDS011;30487;48.716;9.272;2022-10-16T05:50:59;5.65;;;2.30;;
44766;SDS011;30487;48.716;9.272;2022-10-16T05:53:28;6.55;;;2.10;;
44766;SDS011;30487;48.716;9.272;2022-10-16T05:55:55;6.18;;;2.08;;
44766;SDS011;30487;48.716;9.272;2022-10-16T05:58:21;9.65;;;2.00;;
44766;SDS011;30487;48.716;9.272;2022-10-16T06:01:33;7.50;;;1.98;;
44766;SDS011;30487;48.716;9.272;2022-10-16T06:03:37;5.05;;;1.60;;
44766;SDS011;30487;48.716;9.272;2022-10-16T06:06:07;4.63;;;1.45;;
44766;SDS011;30487;48.716;9.272;2022-10-16T06:08:40;5.82;;;1.80;;
44766;SDS011;30487;48.716;9.272;2022-10-16T06:11:08;6.50;;;2.00;;
44766;SDS011;30487;48.716;9.272;2022-10-16T06:13:36;3.88;;;1.77;;
44766;SDS011;30487;48.716;9.272;2022-10-16T06:16:02;6.05;;;1.60;;
44766;SDS011;30487;48.716;9.272;2022-10-16T06:18:28;5.22;;;1.92;;
44766;SDS011;30487;48.716;9.272;2022-10-16T06:20:55;4.95;;;1.52;;
44766;SDS011;30487;48.716;9.272;2022-10-16T06:23:21;6.47;;;2.05;;
44766;SDS011;30487;48.716;9.272;2022-10-16T06:25:47;5.32;;;2.15;;
44766;SDS011;30487;48.716;9.272;2022-10-16T06:28:13;5.10;;;2.58;;
44766;SDS011;30487;48.716;9.272;2022-10-16T06:30:39;5.85;;;2.30;;
44766;SDS011;30487;48.716;9.272;2022-10-16T06:33:05;5.32;;;1.80;;
44766;SDS011;30487;48.716;9.272;2022-10-16T06:35:31;4.20;;;1.80;;
44766;SDS011;30487;48.716;9.272;2022-10-16T06:37:57;3.17;;;1.67;;
44766;SDS011;30487;48.716;9.272;2022-10-16T06:40:23;4.40;;;1.50;;
44766;SDS011;30487;48.716;9.272;2022-10-16T06:42:48;5.25;;;1.40;;
44766;SDS011;30487;48.716;9.272;2022-10-16T06:45:14;3.20;;;1.13;;
44766;SDS011;30487;48.716;9.272;2022-10-16T06:47:39;6.65;;;1.73;;
44766;SDS011;30487;48.716;9.272;2022-10-16T06:50:05;4.43;;;2.30;;
44766;SDS011;30487;48.716;9.272;2022-10-16T06:52:34;5.32;;;1.88;;
44766;SDS011;30487;48.716;9.272;2022-10-16T06:54:59;4.60;;;1.58;;
44766;SDS011;30487;48.716;9.272;2022-10-16T06:57:25;5.15;;;1.40;;
44766;SDS011;30487;48.716;9.272;2022-10-16T06:59:51;4.15;;;1.58;;
44766;SDS011;30487;48.716;9.272;2022-10-16T07:02:17;8.10;;;1.50;;
44766;SDS011;30487;48.716;9.272;2022-10-16T07:04:42;3.78;;;1.23;;
44766;SDS011;30487;48.716;9.272;2022-10-16T07:07:08;5.00;;;1.50;;
44766;SDS011;30487;48.716;9.272;2022-10-16T07:09:33;2.58;;;1.63;;
44766;SDS011;30487;48.716;9.272;2022-10-16T07:11:59;2.92;;;1.30;;
44766;SDS011;30487;48.716;9.272;2022-10-16T07:14:24;5.47;;;1.30;;
44766;SDS011;30487;48.716;9.272;2022-10-16T07:16:50;8.18;;;1.60;;
44766;SDS011;30487;48.716;9.272;2022-10-16T07:19:16;5.10;;;1.70;;
44766;SDS011;30487;48.716;9.272;2022-10-16T07:21:42;5.20;;;1.33;;
44766;SDS011;30487;48.716;9.272;2022-10-16T07:24:18;4.72;;;1.40;;
44766;SDS011;30487;48.716;9.272;2022-10-16T07:26:44;4.68;;;1.38;;
44766;SDS011;30487;48.716;9.272;2022-10-16T07:29:28;5.28;;;1.50;;
44766;SDS011;30487;48.716;9.272;2022-10-16T07:31:54;6.95;;;1.60;;
44766;SDS011;30487;48.716;9.272;2022-10-16T07:34:20;2.90;;;1.50;;
44766;SDS011;30487;48.716;9.272;2022-10-16T07:36:48;3.75;;;1.60;;
44766;SDS011;30487;48.716;9.272;2022-10-16T07:39:15;3.67;;;1.42;;
44766;SDS011;30487;48.716;9.272;2022-10-16T07:41:40;6.32;;;1.40;;
44766;SDS011;30487;48.716;9.272;2022-10-16T07:44:06;6.57;;;1.98;;
44766;SDS011;30487;48.716;9.272;2022-10-16T07:46:32;3.45;;;1.73;;
44766;SDS011;30487;48.716;9.272;2022-10-16T07:48:59;4.25;;;1.52;;
44766;SDS011;30487;48.716;9.272;2022-10-16T07:51:24;3.47;;;1.50;;
44766;SDS011;30487;48.716;9.272;2022-10-16T07:53:51;3.08;;;1.52;;
44766;SDS011;30487;48.716;9.272;2022-10-16T07:56:18;6.35;;;1.60;;
44766;SDS011;30487;48.716;9.272;2022-10-16T07:58:44;8.15;;;1.88;;
44766;SDS011;30487;48.716;9.272;2022-10-16T08:01:11;3.67;;;1.45;;
44766;SDS011;30487;48.716;9.272;2022-10-16T08:03:41;3.28;;;1.48;;
44766;SDS011;30487;48.716;9.272;2022-10-16T08:06:07;4.03;;;1.35;;
44766;SDS011;30487;48.716;9.272;2022-10-16T08:08:33;6.90;;;1.58;;
44766;SDS011;30487;48.716;9.272;2022-10-16T08:10:59;8.23;;;1.58;;
44766;SDS011;30487;48.716;9.272;2022-10-16T08:13:25;6.10;;;1.50;;
44766;SDS011;30487;48.716;9.272;2022-10-16T08:15:51;3.47;;;1.42;;
44766;SDS011;30487;48.716;9.272;2022-10-16T08:18:18;5.28;;;1.73;;
44766;SDS011;30487;48.716;9.272;2022-10-16T08:20:44;5.03;;;1.65;;
44766;SDS011;30487;48.716;9.272;2022-10-16T08:23:10;3.20;;;1.45;;
44766;SDS011;30487;48.716;9.272;2022-10-16T08:25:38;3.95;;;1.60;;
44766;SDS011;30487;48.716;9.272;2022-10-16T08:28:04;7.43;;;2.05;;
44766;SDS011;30487;48.716;9.272;2022-10-16T08:30:31;4.78;;;1.67;;
44766;SDS011;30487;48.716;9.272;2022-10-16T08:32:57;4.85;;;1.58;;
44766;SDS011;30487;48.716;9.272;2022-10-16T08:35:23;5.60;;;1.48;;
44766;SDS011;30487;48.716;9.272;2022-10-16T08:37:49;2.40;;;1.27;;
44766;SDS011;30487;48.716;9.272;2022-10-16T08:40:25;5.22;;;1.95;;
44766;SDS011;30487;48.716;9.272;2022-10-16T08:43:18;5.70;;;1.35;;
44766;SDS011;30487;48.716;9.272;2022-10-16T08:51:08;4.93;;;1.30;;
44766;SDS011;30487;48.716;9.272;2022-10-16T08:53:43;3.85;;;1.50;;
44766;SDS011;30487;48.716;9.272;2022-10-16T08:56:13;5.05;;;1.60;;
44766;SDS011;30487;48.716;9.272;2022-10-16T08:58:39;3.60;;;1.42;;
44766;SDS011;30487;48.716;9.272;2022-10-16T09:01:10;4.05;;;1.52;;
44766;SDS011;30487;48.716;9.272;2022-10-16T09:06:53;4.07;;;1.38;;
44766;SDS011;30487;48.716;9.272;2022-10-16T09:09:32;5.65;;;1.70;;
44766;SDS011;30487;48.716;9.272;2022-10-16T09:22:46;3.25;;;1.42;;
44766;SDS011;30487;48.716;9.272;2022-10-16T09:25:13;5.95;;;1.70;;
44766;SDS011;30487;48.716;9.272;2022-10-16T09:27:42;5.57;;;1.85;;
44766;SDS011;30487;48.716;9.272;2022-10-16T09:30:14;6.65;;;1.40;;
44766;SDS011;30487;48.716;9.272;2022-10-16T09:32:43;6.25;;;1.83;;
44766;SDS011;30487;48.716;9.272;2022-10-16T09:35:14;6.50;;;1.55;;
44766;SDS011;30487;48.716;9.272;2022-10-16T09:37:42;9.10;;;1.70;;
44766;SDS011;30487;48.716;9.272;2022-10-16T09:40:23;9.02;;;1.50;;
44766;SDS011;30487;48.716;9.272;2022-10-16T09:43:02;3.10;;;1.27;;
44766;SDS011;30487;48.716;9.272;2022-10-16T09:45:36;6.70;;;1.48;;
44766;SDS011;30487;48.716;9.272;2022-10-16T09:48:09;8.38;;;1.48;;
44766;SDS011;30487;48.716;9.272;2022-10-16T09:50:36;4.43;;;1.35;;
44766;SDS011;30487;48.716;9.272;2022-10-16T09:53:10;3.80;;;1.20;;
44766;SDS011;30487;48.716;9.272;2022-10-16T09:55:47;2.13;;;0.90;;
44766;SDS011;30487;48.716;9.272;2022-10-16T09:58:17;5.28;;;1.20;;
44766;SDS011;30487;48.716;9.272;2022-10-16T10:00:48;1.70;;;1.00;;
44766;SDS011;30487;48.716;9.272;2022-10-16T10:03:23;1.80;;;0.95;;
44766;SDS011;30487;48.716;9.272;2022-10-16T10:06:03;2.20;;;0.88;;
44766;SDS011;30487;48.716;9.272;2022-10-16T10:08:55;5.35;;;1.08;;
44766;SDS011;30487;48.716;9.272;2022-10-16T10:11:58;1.63;;;1.00;;
44766;SDS011;30487;48.716;9.272;2022-10-16T10:14:26;2.00;;;0.90;;
44766;SDS011;30487;48.716;9.272;2022-10-16T10:17:07;6.18;;;1.20;;
44766;SDS011;30487;48.716;9.272;2022-10-16T10:19:48;1.30;;;0.90;;
44766;SDS011;30487;48.716;9.272;2022-10-16T10:22:22;1.13;;;0.77;;
44766;SDS011;30487;48.716;9.272;2022-10-16T10:33:20;1.77;;;1.10;;
44766;SDS011;30487;48.716;9.272;2022-10-16T10:36:08;1.98;;;0.90;;
44766;SDS011;30487;48.716;9.272;2022-10-16T10:38:52;1.63;;;0.80;;
44766;SDS011;30487;48.716;9.272;2022-10-16T10:46:41;2.25;;;0.80;;
44766;SDS011;30487;48.716;9.272;2022-10-16T10:49:20;2.72;;;1.15;;
44766;SDS011;30487;48.716;9.272;2022-10-16T10:51:58;3.70;;;1.00;;
44766;SDS011;30487;48.716;9.272;2022-10-16T10:54:38;3.88;;;0.80;;
44766;SDS011;30487;48.716;9.272;2022-10-16T11:05:50;1.02;;;0.68;;
44766;SDS011;30487;48.716;9.272;2022-10-16T11:08:43;1.73;;;0.80;;
44766;SDS011;30487;48.716;9.272;2022-10-16T11:11:13;3.90;;;0.80;;
44766;SDS011;30487;48.716;9.272;2022-10-16T11:13:43;3.38;;;0.88;;
44766;SDS011;30487;48.716;9.272;2022-10-16T11:16:17;3.53;;;0.70;;
44766;SDS011;30487;48.716;9.272;2022-10-16T11:21:44;4.50;;;0.88;;
44766;SDS011;30487;48.716;9.272;2022-10-16T11:24:19;5.68;;;0.88;;
44766;SDS011;30487;48.716;9.272;2022-10-16T11:26:52;6.53;;;0.88;;
44766;SDS011;30487;48.716;9.272;2022-10-16T11:29:22;3.72;;;0.95;;
44766;SDS011;30487;48.716;9.272;2022-10-16T11:31:55;1.77;;;0.90;;
44766;SDS011;30487;48.716;9.272;2022-10-16T11:34:30;3.67;;;1.10;;
44766;SDS011;30487;48.716;9.272;2022-10-16T11:37:11;5.40;;;0.90;;
44766;SDS011;30487;48.716;9.272;2022-10-16T11:39:45;2.25;;;1.00;;
44766;SDS011;30487;48.716;9.272;2022-10-16T11:42:22;1.80;;;1.17;;
44766;SDS011;30487;48.716;9.272;2022-10-16T11:56:54;3.47;;;1.10;;
44766;SDS011;30487;48.716;9.272;2022-10-16T11:59:42;4.03;;;1.00;;
44766;SDS011;30487;48.716;9.272;2022-10-16T12:04:56;0.90;;;0.70;;
44766;SDS011;30487;48.716;9.272;2022-10-16T12:09:57;3.42;;;0.98;;
44766;SDS011;30487;48.716;9.272;2022-10-16T12:15:01;2.53;;;0.90;;
44766;SDS011;30487;48.716;9.272;2022-10-16T12:17:42;2.50;;;0.80;;
44766;SDS011;30487;48.716;9.272;2022-10-16T12:22:36;1.90;;;1.02;;
44766;SDS011;30487;48.716;9.272;2022-10-16T12:25:23;3.42;;;0.75;;
44766;SDS011;30487;48.716;9.272;2022-10-16T12:27:53;4.68;;;1.10;;
44766;SDS011;30487;48.716;9.272;2022-10-16T12:30:25;2.40;;;1.10;;
44766;SDS011;30487;48.716;9.272;2022-10-16T12:32:59;3.63;;;1.00;;
44766;SDS011;30487;48.716;9.272;2022-10-16T12:35:32;1.45;;;0.90;;
44766;SDS011;30487;48.716;9.272;2022-10-16T12:38:04;1.73;;;0.70;;
44766;SDS011;30487;48.716;9.272;2022-10-16T12:40:39;5.47;;;0.90;;
44766;SDS011;30487;48.716;9.272;2022-10-16T12:43:11;1.98;;;1.00;;
44766;SDS011;30487;48.716;9.272;2022-10-16T12:45:38;2.28;;;0.80;;
44766;SDS011;30487;48.716;9.272;2022-10-16T12:48:04;2.00;;;1.15;;
44766;SDS011;30487;48.716;9.272;2022-10-16T12:50:45;1.67;;;1.00;;
44766;SDS011;30487;48.716;9.272;2022-10-16T12:53:21;1.38;;;0.88;;
44766;SDS011;30487;48.716;9.272;2022-10-16T12:56:13;1.33;;;0.80;;
44766;SDS011;30487;48.716;9.272;2022-10-16T13:02:33;3.05;;;0.90;;
44766;SDS011;30487;48.716;9.272;2022-10-16T13:04:33;1.77;;;1.00;;
44766;SDS011;30487;48.716;9.272;2022-10-16T13:09:55;5.40;;;1.02;;
44766;SDS011;30487;48.716;9.272;2022-10-16T13:12:44;1.67;;;1.10;;
44766;SDS011;30487;48.716;9.272;2022-10-16T13:21:07;3.97;;;0.85;;
44766;SDS011;30487;48.716;9.272;2022-10-16T13:26:40;2.72;;;1.08;;
44766;SDS011;30487;48.716;9.272;2022-10-16T13:29:08;2.78;;;1.33;;
44766;SDS011;30487;48.716;9.272;2022-10-16T13:31:36;5.13;;;1.17;;
44766;SDS011;30487;48.716;9.272;2022-10-16T13:34:04;2.00;;;0.98;;
44766;SDS011;30487;48.716;9.272;2022-10-16T13:36:35;1.25;;;0.90;;
44766;SDS011;30487;48.716;9.272;2022-10-16T13:39:13;2.95;;;1.00;;
44766;SDS011;30487;48.716;9.272;2022-10-16T13:41:42;4.22;;;1.00;;
44766;SDS011;30487;48.716;9.272;2022-10-16T13:44:12;1.73;;;1.00;;
44766;SDS011;30487;48.716;9.272;2022-10-16T13:46:43;1.88;;;1.10;;
44766;SDS011;30487;48.716;9.272;2022-10-16T13:49:13;2.05;;;1.00;;
44766;SDS011;30487;48.716;9.272;2022-10-16T13:51:40;1.88;;;0.90;;
44766;SDS011;30487;48.716;9.272;2022-10-16T13:54:07;1.67;;;1.13;;
44766;SDS011;30487;48.716;9.272;2022-10-16T13:56:36;4.28;;;1.05;;
44766;SDS011;30487;48.716;9.272;2022-10-16T13:59:04;1.58;;;1.23;;
44766;SDS011;30487;48.716;9.272;2022-10-16T14:01:32;3.22;;;1.00;;
44766;SDS011;30487;48.716;9.272;2022-10-16T14:04:09;5.35;;;1.35;;
44766;SDS011;30487;48.716;9.272;2022-10-16T14:06:40;6.43;;;2.90;;
44766;SDS011;30487;48.716;9.272;2022-10-16T14:09:09;5.90;;;1.98;;
44766;SDS011;30487;48.716;9.272;2022-10-16T14:11:51;6.70;;;1.40;;
44766;SDS011;30487;48.716;9.272;2022-10-16T14:14:20;2.97;;;1.30;;
44766;SDS011;30487;48.716;9.272;2022-10-16T14:16:47;2.60;;;1.42;;
44766;SDS011;30487;48.716;9.272;2022-10-16T14:19:24;3.25;;;1.40;;
44766;SDS011;30487;48.716;9.272;2022-10-16T14:21:52;3.47;;;1.30;;
44766;SDS011;30487;48.716;9.272;2022-10-16T14:24:32;3.72;;;1.10;;
44766;SDS011;30487;48.716;9.272;2022-10-16T14:26:59;4.55;;;1.50;;
44766;SDS011;30487;48.716;9.272;2022-10-16T14:29:26;11.10;;;5.32;;
44766;SDS011;30487;48.716;9.272;2022-10-16T14:32:05;11.25;;;4.70;;
44766;SDS011;30487;48.716;9.272;2022-10-16T14:34:52;11.00;;;5.35;;
44766;SDS011;30487;48.716;9.272;2022-10-16T14:39:54;7.65;;;2.67;;
44766;SDS011;30487;48.716;9.272;2022-10-16T14:42:21;5.65;;;2.30;;
44766;SDS011;30487;48.716;9.272;2022-10-16T14:44:50;4.25;;;1.35;;
44766;SDS011;30487;48.716;9.272;2022-10-16T14:47:20;4.78;;;1.77;;
44766;SDS011;30487;48.716;9.272;2022-10-16T14:49:50;3.28;;;1.48;;
44766;SDS011;30487;48.716;9.272;2022-10-16T14:52:18;4.97;;;1.55;;
44766;SDS011;30487;48.716;9.272;2022-10-16T14:54:43;4.03;;;1.30;;
44766;SDS011;30487;48.716;9.272;2022-10-16T14:57:15;3.10;;;1.40;;
44766;SDS011;30487;48.716;9.272;2022-10-16T14:59:52;4.20;;;1.45;;
44766;SDS011;30487;48.716;9.272;2022-10-16T15:04:54;2.42;;;1.10;;
44766;SDS011;30487;48.716;9.272;2022-10-16T15:07:20;3.25;;;1.10;;
44766;SDS011;30487;48.716;9.272;2022-10-16T15:09:46;2.50;;;1.45;;
44766;SDS011;30487;48.716;9.272;2022-10-16T15:12:12;3.03;;;1.20;;
44766;SDS011;30487;48.716;9.272;2022-10-16T15:14:40;2.17;;;1.20;;
44766;SDS011;30487;48.716;9.272;2022-10-16T15:17:08;2.40;;;1.10;;
44766;SDS011;30487;48.716;9.272;2022-10-16T15:19:36;3.10;;;1.20;;
44766;SDS011;30487;48.716;9.272;2022-10-16T15:22:02;2.08;;;1.25;;
44766;SDS011;30487;48.716;9.272;2022-10-16T15:24:28;2.25;;;1.23;;
44766;SDS011;30487;48.716;9.272;2022-10-16T15:26:53;4.75;;;1.35;;
44766;SDS011;30487;48.716;9.272;2022-10-16T15:29:19;2.83;;;1.40;;
44766;SDS011;30487;48.716;9.272;2022-10-16T15:31:44;3.88;;;1.60;;
44766;SDS011;30487;48.716;9.272;2022-10-16T15:34:12;2.38;;;1.10;;
44766;SDS011;30487;48.716;9.272;2022-10-16T15:36:38;5.53;;;1.20;;
44766;SDS011;30487;48.716;9.272;2022-10-16T15:39:06;6.78;;;1.45;;
44766;SDS011;30487;48.716;9.272;2022-10-16T15:41:38;4.22;;;1.50;;
44766;SDS011;30487;48.716;9.272;2022-10-16T15:44:04;3.45;;;1.30;;
44766;SDS011;30487;48.716;9.272;2022-10-16T15:46:30;3.00;;;1.35;;
44766;SDS011;30487;48.716;9.272;2022-10-16T15:48:56;2.72;;;1.30;;
44766;SDS011;30487;48.716;9.272;2022-10-16T15:51:23;5.38;;;1.65;;
44766;SDS011;30487;48.716;9.272;2022-10-16T15:53:49;4.47;;;1.98;;
44766;SDS011;30487;48.716;9.272;2022-10-16T15:56:16;3.97;;;2.10;;
44766;SDS011;30487;48.716;9.272;2022-10-16T15:58:42;5.80;;;1.60;;
44766;SDS011;30487;48.716;9.272;2022-10-16T16:01:08;3.60;;;1.80;;
44766;SDS011;30487;48.716;9.272;2022-10-16T16:03:35;7.53;;;1.60;;
44766;SDS011;30487;48.716;9.272;2022-10-16T16:06:04;3.53;;;1.60;;
44766;SDS011;30487;48.716;9.272;2022-10-16T16:08:32;3.15;;;1.50;;
44766;SDS011;30487;48.716;9.272;2022-10-16T16:10:59;4.65;;;1.70;;
44766;SDS011;30487;48.716;9.272;2022-10-16T16:13:26;6.80;;;3.65;;
44766;SDS011;30487;48.716;9.272;2022-10-16T16:15:52;8.07;;;3.95;;
44766;SDS011;30487;48.716;9.272;2022-10-16T16:18:17;7.47;;;2.50;;
44766;SDS011;30487;48.716;9.272;2022-10-16T16:20:43;5.13;;;1.73;;
44766;SDS011;30487;48.716;9.272;2022-10-16T16:23:08;2.30;;;1.50;;
44766;SDS011;30487;48.716;9.272;2022-10-16T16:25:34;3.25;;;1.70;;
44766;SDS011;30487;48.716;9.272;2022-10-16T16:28:00;6.03;;;1.40;;
44766;SDS011;30487;48.716;9.272;2022-10-16T16:30:25;4.70;;;1.73;;
44766;SDS011;30487;48.716;9.272;2022-10-16T16:32:51;4.45;;;1.52;;
44766;SDS011;30487;48.716;9.272;2022-10-16T16:35:17;6.63;;;1.90;;
44766;SDS011;30487;48.716;9.272;2022-10-16T16:37:42;5.65;;;1.70;;
44766;SDS011;30487;48.716;9.272;2022-10-16T16:40:08;4.25;;;1.90;;
44766;SDS011;30487;48.716;9.272;2022-10-16T16:42:33;6.35;;;2.20;;
44766;SDS011;30487;48.716;9.272;2022-10-16T16:44:59;6.22;;;2.05;;
44766;SDS011;30487;48.716;9.272;2022-10-16T16:47:25;3.60;;;1.95;;